Wednesday, December 19, 2018, 1:22 AM EST
Back to Local

KGNR, Greenville

Location: Greenville, ME, United States Lat: 45.467
Local Time: 1:22 AM EST ( 6:22 GMT) Lon: -69.583
Time Zone: US/Eastern Elev: 1400 ft

Show me the last for .
Show Decoded

2018-12-19 00:56 METAR KGNR 190556Z AUTO 31013G23KT M11/M15 A2979 RMK AO1 SLP117 T11111150 11083
                 21111 51021 =
2018-12-18 23:56 METAR KGNR 190456Z AUTO 31014G25KT M11/M14 A2976 RMK AO1 PK WND 31032/0419
                 SLP108 T11061139 410281106 =
2018-12-18 22:56 METAR KGNR 190356Z AUTO 31015G29KT M09/M13 A2976 RMK AO1 PK WND 31042/0300
                 SLP105 T10941133 =
2018-12-18 21:56 METAR KGNR 190256Z AUTO 31022G39KT M09/M13 A2973 RMK AO1 PK WND 31039/0247
                 SLP094 T10891128 53010 =
2018-12-18 20:56 METAR KGNR 190156Z AUTO 31025G36KT M09/M13 A2971 RMK AO1 PK WND 32039/0112
                 SLP090 T10891128 =
2018-12-18 19:56 METAR KGNR 190056Z AUTO 32026G36KT M09/M13 A2971 RMK AO1 PK WND 33038/0038
                 SLP089 T10891128 =
2018-12-18 18:56 METAR KGNR 182356Z AUTO 31026G34KT M09/M13 A2970 RMK AO1 PK WND 31034/2356
                 SLP085 T10891128 11078 21089 51012 =
2018-12-18 17:56 METAR KGNR 182256Z AUTO 32023G34KT M09/M13 A2969 RMK AO1 PK WND 32034/2248
                 SLP082 T10891128 =
2018-12-18 16:56 METAR KGNR 182156Z AUTO 31021G30KT M08/M13 A2967 RMK AO1 PK WND 31035/2115
                 SLP075 T10831128 =
2018-12-18 15:56 METAR KGNR 182056Z AUTO 31019G32KT M08/M12 A2966 RMK AO1 PK WND 34034/2028
                 SLP072 T10831122 53029 =
2018-12-18 14:56 METAR KGNR 181956Z AUTO 31018G34KT M08/M12 A2964 RMK AO1 PK WND 33038/1933
                 SLP062 T10781122 =
2018-12-18 13:56 METAR KGNR 181856Z AUTO 32024G34KT M08/M12 A2960 RMK AO1 PK WND 31034/1758
                 SLP048 T10831122 =
2018-12-18 12:56 METAR KGNR 181756Z AUTO 31021G31KT M08/M12 A2957 RMK AO1 PK WND 32040/1657
                 SLP039 T10831122 11083 21100 56006 =
2018-12-18 11:56 METAR KGNR 181656Z AUTO 32023G36KT M09/M13 A2958 RMK AO1 PK WND 32036/1649
                 SLP038 T10891128 =
2018-12-18 10:56 METAR KGNR 181556Z AUTO 32018G29KT M09/M13 A2958 RMK AO1 PK WND 31035/1529
                 SLP041 T10891133 =
2018-12-18 09:56 METAR KGNR 181456Z AUTO 31013G21KT M09/M13 A2959 RMK AO1 PK WND 31031/1412
                 SLP044 T10941133 51033 =
2018-12-18 08:56 METAR KGNR 181356Z AUTO 32018G30KT M10/M13 A2957 RMK AO1 PK WND 32030/1349
                 SLP037 T11001133 =
2018-12-18 07:56 METAR KGNR 181256Z AUTO 31017G30KT M10/M13 A2953 RMK AO1 PK WND 32033/1225
                 SLP024 T11001128 =
2018-12-18 06:56 METAR KGNR 181156Z AUTO 32019G30KT M10/M13 A2949 RMK AO1 PK WND 33032/1143
                 SLP010 60003 70048 T11001133 11050 21100 53034 =
2018-12-18 05:56 METAR KGNR 181056Z AUTO 32023G31KT M09/M13 A2946 RMK AO1 PK WND 31031/0958
                 SLP998 P0001 T10941128 =
2018-12-18 04:56 METAR KGNR 180956Z AUTO 32022G33KT M09/M12 A2941 RMK AO1 PK WND 31035/0934
                 SLP983 T10941122 =
2018-12-18 03:56 METAR KGNR 180856Z AUTO 32022G35KT M09/M12 A2939 RMK AO1 PK WND 31035/0854
                 SLP974 P0001 60002 T10891117 51026 =
2018-12-18 02:56 METAR KGNR 180756Z AUTO 31017G29KT M08/M11 A2937 RMK AO1 PK WND 31032/0722
                 SLP966 P0001 T10831106 =
2018-12-18 01:56 METAR KGNR 180656Z AUTO 31015G30KT M07/M09 A2934 RMK AO1 PK WND 33033/0615
                 SLP956 T10671089 =

Support USWX by starting your Amazon purchase here.